Time;durP1;ratioP1;P1;durP2;ratioP2;P2;SDS_P1;SDS_P2;PMS_P1;PMS_P2;Temp;Humidity;BMP_temperature;BMP_pressure;BME280_temperature;BME280_humidity;BME280_pressure;Samples;Min_cycle;Max_cycle;Signal;HPM_P1;HPM_P2
2021/06/05 00:02:05;;;;;;;5.00;1.20;;;21.30;1.00;;;;;;5084167;28;20450;-80
2021/06/05 00:04:33;;;;;;;2.13;1.00;;;21.30;1.00;;;;;;5093609;28;20481;-81
2021/06/05 00:07:00;;;;;;;2.30;1.23;;;21.30;1.00;;;;;;5092660;28;20452;-80
2021/06/05 00:09:28;;;;;;;2.10;0.90;;;21.30;1.00;;;;;;5092918;28;21079;-81
2021/06/05 00:11:56;;;;;;;1.43;0.90;;;21.30;1.00;;;;;;5092838;28;20468;-83
2021/06/05 00:14:25;;;;;;;2.30;1.00;;;21.30;1.00;;;;;;5124944;27;20470;-82
2021/06/05 00:16:53;;;;;;;1.20;0.87;;;21.30;1.00;;;;;;5088307;28;20503;-81
2021/06/05 00:19:21;;;;;;;2.50;2.00;;;21.20;1.00;;;;;;5090388;28;20469;-80
2021/06/05 00:21:49;;;;;;;1.67;0.93;;;21.10;1.00;;;;;;5093784;28;20499;-82
2021/06/05 00:24:18;;;;;;;1.87;1.50;;;21.20;1.00;;;;;;5091793;28;20965;-84
2021/06/05 00:26:47;;;;;;;1.50;1.00;;;21.10;1.00;;;;;;5091670;28;20474;-83
2021/06/05 00:29:15;;;;;;;1.37;1.13;;;21.10;1.00;;;;;;5090089;28;21067;-82
2021/06/05 00:31:44;;;;;;;1.20;1.07;;;21.00;1.00;;;;;;5091898;28;20457;-82
2021/06/05 00:34:12;;;;;;;1.93;1.00;;;20.50;99.90;;;;;;5094569;28;20442;-82
2021/06/05 00:36:40;;;;;;;1.03;0.93;;;20.40;1.00;;;;;;5091732;28;20498;-82
2021/06/05 00:39:09;;;;;;;1.20;1.10;;;20.10;1.00;;;;;;5089640;28;20525;-82
2021/06/05 00:41:38;;;;;;;1.20;1.10;;;20.20;1.00;;;;;;5077519;28;20435;-81
2021/06/05 00:44:09;;;;;;;1.47;0.90;;;20.30;99.90;;;;;;5077147;28;20458;-79
2021/06/05 00:46:37;;;;;;;1.10;0.90;;;20.40;99.90;;;;;;5092850;28;20540;-81
2021/06/05 00:49:09;;;;;;;3.00;1.10;;;20.20;99.90;;;;;;5091280;28;20463;-79
2021/06/05 00:51:39;;;;;;;1.20;1.10;;;20.10;99.90;;;;;;5089695;28;20519;-82
2021/06/05 00:54:09;;;;;;;1.10;0.87;;;20.10;99.90;;;;;;5083300;28;20638;-81
2021/06/05 00:56:37;;;;;;;0.97;0.97;;;20.00;99.90;;;;;;5093902;28;20453;-81
2021/06/05 00:59:05;;;;;;;2.03;1.20;;;20.10;99.90;;;;;;5092314;28;20473;-80
2021/06/05 01:01:33;;;;;;;1.20;1.07;;;20.10;99.90;;;;;;5090944;28;20462;-80
2021/06/05 01:04:01;;;;;;;2.63;0.93;;;20.20;99.90;;;;;;5105583;28;20946;-80
2021/06/05 01:06:35;;;;;;;1.60;1.00;;;20.30;99.90;;;;;;5094542;28;21014;-81
2021/06/05 01:09:07;;;;;;;2.10;1.03;;;20.40;76.70;;;;;;5082627;28;20461;-80
2021/06/05 01:11:43;;;;;;;1.80;1.00;;;20.10;99.90;;;;;;5092492;28;20945;-81
2021/06/05 01:14:21;;;;;;;1.10;1.00;;;20.00;99.90;;;;;;5087861;28;21328;-80
2021/06/05 01:16:53;;;;;;;1.03;0.97;;;20.00;99.90;;;;;;5092208;28;20453;-79
2021/06/05 01:19:36;;;;;;;1.80;1.10;;;20.00;99.90;;;;;;5091638;28;20470;-81
2021/06/05 01:22:16;;;;;;;1.00;0.90;;;20.20;99.90;;;;;;5092210;28;20469;-79
2021/06/05 01:24:55;;;;;;;1.20;1.10;;;20.30;99.90;;;;;;5121917;27;20485;-80
2021/06/05 01:27:28;;;;;;;2.20;0.90;;;20.40;14.50;;;;;;5088481;28;20507;-82
2021/06/05 01:29:58;;;;;;;1.83;1.10;;;20.40;1.00;;;;;;5087655;28;20511;-82
2021/06/05 01:32:27;;;;;;;0.90;0.83;;;20.40;1.00;;;;;;5091532;28;20457;-81
2021/06/05 01:34:58;;;;;;;0.87;0.87;;;20.40;1.00;;;;;;5094108;28;20471;-81
2021/06/05 01:37:28;;;;;;;0.70;0.70;;;20.40;1.00;;;;;;5086748;28;20453;-79
2021/06/05 01:39:56;;;;;;;2.70;1.00;;;20.40;1.00;;;;;;5088492;28;20504;-81
2021/06/05 01:42:28;;;;;;;3.03;0.90;;;20.50;1.00;;;;;;5105275;28;20491;-81
2021/06/05 01:44:58;;;;;;;2.13;0.90;;;20.50;1.00;;;;;;5090993;28;20866;-81
2021/06/05 01:47:26;;;;;;;0.90;0.90;;;20.50;1.00;;;;;;5088772;28;20499;-80
2021/06/05 01:49:54;;;;;;;1.33;1.00;;;20.50;1.00;;;;;;5088834;28;20472;-81
2021/06/05 01:52:25;;;;;;;1.60;0.90;;;20.50;1.00;;;;;;5090637;28;20449;-80
2021/06/05 01:54:58;;;;;;;0.77;0.77;;;20.50;1.00;;;;;;5096374;28;20457;-80
2021/06/05 01:57:31;;;;;;;1.43;1.00;;;20.40;1.00;;;;;;5093934;28;20507;-81
2021/06/05 01:59:59;;;;;;;0.90;0.83;;;20.40;1.00;;;;;;5091067;28;20499;-81
2021/06/05 02:02:27;;;;;;;1.40;1.03;;;20.40;1.00;;;;;;5095157;28;20973;-81
2021/06/05 02:04:55;;;;;;;1.57;0.90;;;20.30;1.00;;;;;;5095708;28;20474;-80
2021/06/05 02:07:22;;;;;;;1.03;0.90;;;20.30;1.00;;;;;;5097523;28;20450;-82
2021/06/05 02:09:51;;;;;;;1.00;0.90;;;20.30;1.00;;;;;;5092979;28;20499;-80
2021/06/05 02:12:21;;;;;;;0.97;0.90;;;20.30;1.00;;;;;;5096059;28;20448;-81
2021/06/05 02:14:56;;;;;;;0.97;0.80;;;20.30;1.00;;;;;;5096894;28;20469;-81
2021/06/05 02:17:26;;;;;;;0.73;0.73;;;20.30;1.00;;;;;;5083578;28;20743;-80
2021/06/05 02:19:57;;;;;;;0.73;0.70;;;20.30;1.00;;;;;;5081501;28;20473;-81
2021/06/05 02:22:28;;;;;;;2.00;1.10;;;20.30;1.00;;;;;;5096921;28;20464;-81
2021/06/05 02:24:59;;;;;;;0.90;0.90;;;20.30;1.00;;;;;;5094470;28;20457;-81
2021/06/05 02:27:29;;;;;;;1.17;0.70;;;20.30;1.00;;;;;;5077442;28;20434;-82
2021/06/05 02:29:59;;;;;;;0.97;0.80;;;20.30;1.00;;;;;;5095826;28;20513;-82
2021/06/05 02:32:30;;;;;;;0.87;0.87;;;20.40;1.00;;;;;;5084785;28;20453;-81
2021/06/05 02:35:00;;;;;;;5.87;1.00;;;20.50;1.00;;;;;;5074703;28;20463;-81
2021/06/05 02:37:29;;;;;;;0.93;0.90;;;20.40;1.00;;;;;;5076456;28;20441;-80
2021/06/05 02:40:00;;;;;;;0.73;0.73;;;20.40;1.00;;;;;;5087364;28;21262;-80
2021/06/05 02:42:28;;;;;;;2.00;1.07;;;20.40;1.00;;;;;;5087633;28;20468;-80
2021/06/05 02:45:00;;;;;;;0.80;0.80;;;20.30;1.00;;;;;;5093183;28;21219;-80
2021/06/05 02:47:28;;;;;;;2.30;1.00;;;20.40;1.00;;;;;;5096382;28;20457;-80
2021/06/05 02:50:00;;;;;;;1.70;1.00;;;20.50;1.00;;;;;;5095037;28;20426;-81
2021/06/05 02:52:31;;;;;;;0.90;0.90;;;20.50;1.00;;;;;;5091615;28;20813;-79
2021/06/05 02:55:04;;;;;;;1.17;0.83;;;20.50;1.00;;;;;;5084595;28;20477;-80
2021/06/05 02:57:33;;;;;;;3.57;1.10;;;20.50;1.00;;;;;;5096240;28;20453;-80
2021/06/05 03:00:24;;;;;;;1.00;0.90;;;20.50;1.00;;;;;;5091042;28;20661;-82
2021/06/05 03:02:52;;;;;;;1.00;0.90;;;20.40;1.00;;;;;;5095003;28;20541;-80
2021/06/05 03:05:20;;;;;;;1.00;0.90;;;20.40;1.00;;;;;;5093494;28;20955;-81
2021/06/05 03:07:48;;;;;;;0.80;0.77;;;20.40;1.00;;;;;;5096351;28;20441;-81
2021/06/05 03:10:16;;;;;;;2.17;0.90;;;20.40;1.00;;;;;;5091877;28;20493;-81
2021/06/05 03:12:44;;;;;;;1.67;0.90;;;20.40;1.00;;;;;;5089786;28;20525;-80
2021/06/05 03:15:13;;;;;;;0.93;0.90;;;20.40;1.00;;;;;;5092166;28;20469;-80
2021/06/05 03:17:43;;;;;;;2.13;0.90;;;20.40;1.00;;;;;;5095089;28;20825;-80
2021/06/05 03:20:16;;;;;;;0.90;0.80;;;20.40;1.00;;;;;;5124309;27;21023;-82
2021/06/05 03:22:44;;;;;;;1.80;0.93;;;20.40;1.00;;;;;;5095092;28;20450;-81
2021/06/05 03:25:13;;;;;;;1.77;1.10;;;20.40;1.00;;;;;;5078903;28;20515;-81
2021/06/05 03:27:41;;;;;;;1.27;1.00;;;20.50;1.00;;;;;;5096137;28;20702;-80
2021/06/05 03:30:11;;;;;;;1.60;0.97;;;20.50;1.00;;;;;;5094709;28;20446;-81
2021/06/05 03:32:39;;;;;;;2.03;1.03;;;20.50;1.00;;;;;;5094742;28;20461;-79
2021/06/05 03:35:10;;;;;;;1.30;1.20;;;20.50;1.00;;;;;;5093966;28;20466;-79
2021/06/05 03:37:38;;;;;;;1.10;1.00;;;20.50;1.00;;;;;;5093572;28;20513;-81
2021/06/05 03:40:08;;;;;;;1.40;1.10;;;20.50;1.00;;;;;;5094062;28;20464;-79
2021/06/05 03:42:36;;;;;;;1.40;1.00;;;20.40;1.00;;;;;;5083469;28;20526;-80
2021/06/05 03:45:05;;;;;;;1.53;1.00;;;20.40;1.00;;;;;;5094445;28;21036;-82
2021/06/05 03:47:33;;;;;;;1.10;0.80;;;20.30;1.00;;;;;;5092803;28;20521;-82
2021/06/05 03:50:00;;;;;;;1.10;1.00;;;20.20;1.00;;;;;;5093448;28;20442;-82
2021/06/05 03:52:29;;;;;;;3.70;0.90;;;20.20;1.00;;;;;;5094226;28;20441;-82
2021/06/05 03:54:57;;;;;;;1.57;0.90;;;20.10;1.00;;;;;;5095718;28;20549;-81
2021/06/05 03:57:26;;;;;;;1.17;1.00;;;20.20;1.00;;;;;;5115709;27;20820;-81
2021/06/05 03:59:56;;;;;;;1.00;0.80;;;20.20;1.00;;;;;;5088881;28;20973;-80
2021/06/05 04:02:24;;;;;;;1.10;0.73;;;20.20;1.00;;;;;;5094294;28;20457;-80
2021/06/05 04:04:52;;;;;;;2.50;1.00;;;20.20;1.00;;;;;;5094412;28;20522;-80
2021/06/05 04:07:21;;;;;;;1.40;0.93;;;20.20;1.00;;;;;;5094472;28;20442;-80
2021/06/05 04:09:50;;;;;;;1.00;0.90;;;20.30;1.00;;;;;;5092791;28;20957;-81
2021/06/05 04:12:17;;;;;;;0.97;0.80;;;20.30;1.00;;;;;;5091097;28;20442;-81
2021/06/05 04:14:45;;;;;;;0.90;0.90;;;20.20;1.00;;;;;;5094556;28;20470;-79
2021/06/05 04:17:13;;;;;;;2.90;1.17;;;20.20;1.00;;;;;;5093053;28;20445;-81
2021/06/05 04:19:42;;;;;;;1.00;0.90;;;20.20;1.00;;;;;;5093602;28;20449;-81
2021/06/05 04:22:10;;;;;;;1.30;1.20;;;20.20;1.00;;;;;;5087540;28;21119;-80
2021/06/05 04:24:38;;;;;;;1.07;0.97;;;20.30;1.00;;;;;;5093060;28;20458;-81
2021/06/05 04:27:09;;;;;;;1.43;1.07;;;20.30;1.00;;;;;;5092543;28;20445;-79
2021/06/05 04:29:38;;;;;;;1.70;0.90;;;20.30;1.00;;;;;;5092151;28;20442;-80
2021/06/05 04:32:07;;;;;;;1.90;1.00;;;20.30;1.00;;;;;;5073700;28;21128;-79
2021/06/05 04:34:35;;;;;;;2.47;0.90;;;20.40;1.00;;;;;;5088065;28;20466;-81
2021/06/05 04:37:03;;;;;;;1.00;0.80;;;20.40;1.00;;;;;;5125511;27;20940;-82
2021/06/05 04:39:31;;;;;;;0.87;0.87;;;20.40;1.00;;;;;;5093838;28;20540;-80
2021/06/05 04:41:59;;;;;;;1.33;0.90;;;20.40;1.00;;;;;;5089904;28;20950;-80
2021/06/05 04:44:29;;;;;;;1.00;0.90;;;20.50;1.00;;;;;;5093290;28;20477;-81
2021/06/05 04:46:56;;;;;;;1.13;0.70;;;20.40;1.00;;;;;;5089499;28;20499;-80
2021/06/05 04:49:24;;;;;;;4.40;1.00;;;20.40;1.00;;;;;;5126531;27;20449;-81
2021/06/05 04:51:52;;;;;;;1.70;0.83;;;20.40;1.00;;;;;;5126184;27;20511;-81
2021/06/05 04:54:20;;;;;;;1.40;0.80;;;20.50;1.00;;;;;;5087970;28;20465;-81
2021/06/05 04:56:50;;;;;;;1.90;0.90;;;20.50;1.00;;;;;;5103661;28;20496;-81
2021/06/05 04:59:20;;;;;;;1.63;0.80;;;20.50;1.00;;;;;;5086744;28;20442;-81
2021/06/05 05:01:50;;;;;;;1.10;1.00;;;20.50;1.00;;;;;;5093711;28;20536;-81
2021/06/05 05:04:18;;;;;;;1.20;0.97;;;20.50;1.00;;;;;;5092898;28;20976;-80
2021/06/05 05:06:46;;;;;;;1.00;0.93;;;20.50;1.00;;;;;;5092596;28;20458;-80
2021/06/05 05:09:15;;;;;;;1.17;0.80;;;20.30;1.00;;;;;;5089687;28;20503;-81
2021/06/05 05:11:43;;;;;;;4.50;1.00;;;20.30;1.00;;;;;;5086759;28;20454;-82
2021/06/05 05:14:11;;;;;;;1.37;1.00;;;20.20;1.00;;;;;;5091069;28;20504;-82
2021/06/05 05:16:40;;;;;;;1.43;1.23;;;20.20;1.00;;;;;;5093400;28;20507;-83
2021/06/05 05:19:10;;;;;;;1.13;0.80;;;20.20;1.00;;;;;;5092055;28;20445;-82
2021/06/05 05:21:37;;;;;;;1.33;0.90;;;20.30;1.00;;;;;;5090092;28;20478;-80
2021/06/05 05:24:06;;;;;;;0.90;0.90;;;20.20;1.00;;;;;;5084585;28;20453;-79
2021/06/05 05:26:34;;;;;;;1.10;0.93;;;20.20;16.50;;;;;;5078354;28;20442;-81
2021/06/05 05:29:02;;;;;;;1.17;0.80;;;20.30;48.10;;;;;;5090886;28;20473;-81
2021/06/05 05:31:30;;;;;;;1.60;1.50;;;20.30;1.00;;;;;;5092455;28;20457;-80
2021/06/05 05:34:00;;;;;;;1.17;0.90;;;20.30;1.00;;;;;;5092787;28;20483;-82
2021/06/05 05:36:32;;;;;;;1.80;1.00;;;20.30;1.00;;;;;;5091707;28;20540;-82
2021/06/05 05:39:00;;;;;;;0.90;0.90;;;20.30;1.00;;;;;;5089329;28;20601;-81
2021/06/05 05:41:29;;;;;;;3.50;0.90;;;20.30;33.50;;;;;;5096337;28;20474;-79
2021/06/05 05:43:57;;;;;;;1.47;0.83;;;20.30;29.30;;;;;;5079437;28;20489;-82
2021/06/05 05:46:25;;;;;;;0.80;0.80;;;20.40;3.10;;;;;;5091128;28;20839;-82
2021/06/05 05:48:53;;;;;;;2.50;1.00;;;20.40;1.00;;;;;;5091181;28;20807;-81
2021/06/05 05:51:22;;;;;;;0.80;0.70;;;20.50;1.00;;;;;;5086622;28;20949;-79
2021/06/05 05:53:52;;;;;;;1.10;0.80;;;20.40;1.00;;;;;;5085618;28;20465;-80
2021/06/05 05:56:22;;;;;;;1.43;0.97;;;20.30;1.00;;;;;;5083823;28;20538;-80
2021/06/05 05:58:52;;;;;;;0.80;0.80;;;20.20;1.00;;;;;;5085537;28;20462;-81
2021/06/05 06:01:22;;;;;;;1.30;1.07;;;20.20;1.00;;;;;;5090045;28;20469;-79
2021/06/05 06:03:51;;;;;;;3.33;0.90;;;20.20;85.50;;;;;;5091891;28;20457;-80
2021/06/05 06:06:20;;;;;;;1.33;1.23;;;20.20;1.00;;;;;;5096982;28;21067;-78
2021/06/05 06:08:48;;;;;;;0.90;0.90;;;20.20;17.00;;;;;;5093297;28;20465;-81
2021/06/05 06:11:17;;;;;;;1.33;1.00;;;20.20;99.90;;;;;;5089431;28;20483;-77
2021/06/05 06:13:45;;;;;;;2.03;1.20;;;20.20;99.90;;;;;;5085211;28;20503;-77
2021/06/05 06:16:15;;;;;;;1.13;1.03;;;20.10;99.90;;;;;;5088190;28;20477;-80
2021/06/05 06:18:44;;;;;;;1.97;1.23;;;20.10;99.90;;;;;;5082149;28;20461;-78
2021/06/05 06:21:13;;;;;;;1.63;0.93;;;20.20;99.90;;;;;;5085868;28;21209;-80
2021/06/05 06:23:42;;;;;;;1.03;0.90;;;20.30;99.90;;;;;;5087683;28;21161;-80
2021/06/05 06:26:13;;;;;;;1.47;1.10;;;20.30;99.90;;;;;;5087964;28;21215;-80
2021/06/05 06:28:42;;;;;;;4.50;1.10;;;20.40;99.90;;;;;;5086868;28;20446;-79
2021/06/05 06:31:13;;;;;;;1.40;0.90;;;20.40;99.90;;;;;;5087519;28;20434;-79
2021/06/05 06:33:41;;;;;;;1.10;1.00;;;20.40;77.80;;;;;;5086489;28;20459;-81
2021/06/05 06:36:09;;;;;;;1.47;1.37;;;20.40;99.90;;;;;;5088301;28;20484;-80
2021/06/05 06:38:40;;;;;;;1.70;0.90;;;20.50;99.90;;;;;;5085747;28;20978;-80
2021/06/05 06:41:11;;;;;;;1.33;1.23;;;20.50;99.90;;;;;;5091875;28;20542;-78
2021/06/05 06:43:41;;;;;;;2.23;0.83;;;20.60;91.90;;;;;;5121768;27;20494;-81
2021/06/05 06:46:13;;;;;;;7.60;2.00;;;20.70;12.40;;;;;;5095171;28;20518;-80
2021/06/05 06:48:41;;;;;;;0.83;0.83;;;20.80;71.00;;;;;;5093217;28;20462;-80
2021/06/05 06:51:09;;;;;;;1.63;1.30;;;20.80;63.70;;;;;;5093563;28;20434;-80
2021/06/05 06:53:36;;;;;;;2.07;1.00;;;20.90;10.80;;;;;;5091618;28;20462;-79
2021/06/05 06:56:05;;;;;;;0.80;0.70;;;21.00;1.00;;;;;;5097566;28;20827;-79
2021/06/05 06:58:34;;;;;;;2.40;0.90;;;21.00;1.00;;;;;;5089256;28;20865;-79
2021/06/05 07:01:04;;;;;;;1.17;0.80;;;21.00;1.00;;;;;;5090247;28;21093;-81
2021/06/05 07:03:32;;;;;;;1.20;0.87;;;21.00;1.00;;;;;;5091077;28;20462;-80
2021/06/05 07:06:00;;;;;;;2.40;1.00;;;20.90;1.00;;;;;;5096135;28;20514;-80
2021/06/05 07:08:31;;;;;;;0.77;0.77;;;21.00;1.00;;;;;;5089966;28;20852;-79
2021/06/05 07:11:01;;;;;;;1.30;0.90;;;21.00;1.00;;;;;;5086796;28;21140;-80
2021/06/05 07:13:30;;;;;;;1.80;0.90;;;21.00;1.00;;;;;;5084441;28;20499;-78
2021/06/05 07:15:58;;;;;;;2.10;0.80;;;21.10;1.00;;;;;;5090554;28;20508;-80
2021/06/05 07:18:29;;;;;;;0.80;0.80;;;21.10;1.00;;;;;;5083989;28;20489;-79
2021/06/05 07:20:58;;;;;;;1.00;0.80;;;21.20;1.00;;;;;;5101767;28;20459;-78
2021/06/05 07:23:28;;;;;;;1.40;1.00;;;21.20;1.00;;;;;;5096716;28;20469;-80
2021/06/05 07:25:59;;;;;;;1.50;1.13;;;21.20;1.00;;;;;;5091399;28;20473;-76
2021/06/05 07:28:28;;;;;;;0.87;0.80;;;21.20;1.00;;;;;;5086257;28;20449;-77
2021/06/05 07:30:57;;;;;;;1.03;0.93;;;21.30;1.00;;;;;;5124371;27;20446;-80
2021/06/05 07:33:27;;;;;;;2.70;1.00;;;21.30;1.00;;;;;;5086057;28;20438;-79
2021/06/05 07:35:56;;;;;;;1.00;0.90;;;21.30;1.00;;;;;;5084129;28;20462;-78
2021/06/05 07:38:25;;;;;;;1.10;1.00;;;21.30;1.00;;;;;;5083015;28;20442;-79
2021/06/05 07:40:55;;;;;;;1.47;0.90;;;21.30;1.00;;;;;;5083713;28;20445;-74
2021/06/05 07:43:25;;;;;;;0.90;0.90;;;21.30;1.00;;;;;;5090892;28;20453;-74
2021/06/05 07:45:54;;;;;;;2.20;0.90;;;21.30;1.00;;;;;;5086424;28;20477;-73
2021/06/05 07:48:23;;;;;;;0.70;0.70;;;21.20;1.00;;;;;;5100146;27;20465;-73
2021/06/05 07:50:52;;;;;;;1.27;1.00;;;21.20;1.00;;;;;;5079122;28;20509;-75
2021/06/05 07:53:20;;;;;;;1.70;0.80;;;21.20;1.00;;;;;;5076108;28;20498;-74
2021/06/05 07:55:48;;;;;;;1.03;0.83;;;21.10;1.00;;;;;;5080643;28;20530;-73
2021/06/05 07:58:16;;;;;;;1.10;1.00;;;21.20;1.00;;;;;;5078037;28;20512;-73
2021/06/05 08:00:43;;;;;;;0.90;0.80;;;21.10;1.00;;;;;;5085279;28;20644;-73
2021/06/05 08:03:11;;;;;;;1.00;0.90;;;21.00;1.00;;;;;;5085770;28;20556;-73
2021/06/05 08:05:40;;;;;;;2.27;0.80;;;20.90;1.00;;;;;;5080741;28;20562;-74
2021/06/05 08:08:14;;;;;;;0.93;0.83;;;20.90;1.00;;;;;;5075129;28;20464;-72
2021/06/05 08:10:43;;;;;;;0.90;0.90;;;20.90;50.10;;;;;;5085164;28;20470;-73
2021/06/05 08:13:11;;;;;;;1.23;0.90;;;20.90;98.70;;;;;;5080984;28;20473;-73
2021/06/05 08:15:41;;;;;;;1.17;0.90;;;20.90;99.90;;;;;;5092720;28;20482;-73
2021/06/05 08:18:10;;;;;;;1.60;0.80;;;20.90;99.90;;;;;;5080897;28;20458;-74
2021/06/05 08:20:41;;;;;;;1.00;0.87;;;21.00;33.90;;;;;;5085290;28;20442;-74
2021/06/05 08:23:11;;;;;;;1.90;1.07;;;21.00;63.70;;;;;;5084799;28;20501;-73
2021/06/05 08:25:39;;;;;;;1.27;0.90;;;21.00;1.00;;;;;;5083966;28;20482;-73
2021/06/05 08:28:08;;;;;;;2.00;0.70;;;21.00;1.00;;;;;;5084680;28;20453;-73
2021/06/05 08:30:38;;;;;;;1.53;0.80;;;20.90;25.20;;;;;;5083383;28;20498;-75
2021/06/05 08:33:07;;;;;;;0.77;0.77;;;20.80;66.30;;;;;;5085238;28;20455;-71
2021/06/05 08:35:35;;;;;;;1.10;1.00;;;20.90;99.90;;;;;;5083596;28;20980;-73
2021/06/05 08:38:05;;;;;;;1.10;0.80;;;21.00;1.00;;;;;;5084543;28;20448;-74
2021/06/05 08:40:59;;;;;;;2.00;1.00;;;21.00;1.00;;;;;;5072241;28;20453;-74
2021/06/05 08:43:32;;;;;;;1.10;0.90;;;21.10;1.00;;;;;;5080993;28;20222;-74
2021/06/05 08:46:01;;;;;;;2.63;1.20;;;21.20;1.00;;;;;;5084149;28;20441;-75
2021/06/05 08:48:29;;;;;;;1.00;0.90;;;21.20;1.00;;;;;;5079931;28;20188;-72
2021/06/05 08:51:09;;;;;;;3.00;1.33;;;21.20;1.00;;;;;;5080041;28;20456;-75
2021/06/05 08:53:37;;;;;;;1.13;1.03;;;21.30;1.00;;;;;;5078443;28;20450;-75
2021/06/05 08:56:11;;;;;;;1.00;1.00;;;21.30;1.00;;;;;;5085645;28;20469;-74
2021/06/05 08:58:44;;;;;;;2.20;1.13;;;21.30;1.00;;;;;;5074345;28;20505;-75
2021/06/05 09:01:15;;;;;;;1.13;1.13;;;21.40;1.00;;;;;;5079758;28;20862;-75
2021/06/05 09:03:46;;;;;;;1.13;1.00;;;21.40;1.00;;;;;;5078605;28;21024;-75
2021/06/05 09:06:19;;;;;;;1.70;0.90;;;21.40;1.00;;;;;;5090636;28;20542;-72
2021/06/05 09:08:48;;;;;;;1.20;1.10;;;21.40;1.00;;;;;;5083388;28;20777;-73
2021/06/05 09:11:18;;;;;;;0.97;0.90;;;21.40;1.00;;;;;;5083435;28;20567;-71
2021/06/05 09:13:46;;;;;;;1.80;1.00;;;21.50;1.00;;;;;;5086568;28;20444;-71
2021/06/05 09:16:34;;;;;;;0.90;0.90;;;21.60;1.00;;;;;;5083852;28;20524;-72
2021/06/05 09:19:23;;;;;;;1.20;0.90;;;21.60;1.00;;;;;;5086103;28;20976;-73
2021/06/05 09:21:57;;;;;;;1.93;1.00;;;21.70;1.00;;;;;;5085390;28;20472;-72
2021/06/05 09:24:31;;;;;;;1.10;1.00;;;21.70;1.00;;;;;;5094213;28;20493;-73
2021/06/05 09:27:09;;;;;;;0.80;0.80;;;21.70;1.00;;;;;;5086209;28;20455;-73
2021/06/05 09:29:55;;;;;;;1.30;1.20;;;21.70;1.00;;;;;;5086179;28;20449;-72
2021/06/05 09:32:25;;;;;;;1.23;1.10;;;21.80;1.00;;;;;;5084605;28;21015;-74
2021/06/05 09:34:54;;;;;;;1.23;1.07;;;21.90;1.00;;;;;;5084872;28;20509;-72
2021/06/05 09:37:37;;;;;;;1.80;1.20;;;21.90;1.00;;;;;;5093983;28;20446;-71
2021/06/05 09:40:16;;;;;;;1.20;0.97;;;21.70;1.00;;;;;;5088745;28;20516;-68
2021/06/05 09:42:48;;;;;;;1.50;1.30;;;21.70;1.00;;;;;;5086038;28;20510;-72
2021/06/05 09:45:32;;;;;;;2.10;1.77;;;21.60;1.00;;;;;;5084867;28;20473;-70
2021/06/05 09:48:23;;;;;;;3.70;1.20;;;21.60;1.00;;;;;;5084280;28;20446;-72
2021/06/05 09:50:53;;;;;;;1.37;1.00;;;21.60;1.00;;;;;;5085873;28;20442;-72
2021/06/05 09:53:28;;;;;;;1.17;1.10;;;21.60;1.00;;;;;;5085131;28;20490;-75
2021/06/05 09:56:00;;;;;;;2.80;1.07;;;21.70;1.00;;;;;;5091415;28;20469;-76
2021/06/05 09:58:38;;;;;;;1.93;1.60;;;21.80;1.00;;;;;;5085166;28;20457;-75
2021/06/05 10:01:21;;;;;;;1.00;1.00;;;21.80;1.00;;;;;;5074794;28;20534;-74
2021/06/05 10:03:50;;;;;;;3.00;1.00;;;21.80;2.80;;;;;;5084356;28;20469;-74
2021/06/05 10:06:31;;;;;;;2.07;0.90;;;21.70;72.50;;;;;;5096739;28;20540;-75
2021/06/05 10:08:58;;;;;;;1.10;1.00;;;21.70;99.90;;;;;;5086590;28;20460;-75
2021/06/05 10:11:31;;;;;;;1.57;1.10;;;21.60;99.90;;;;;;5085783;28;20513;-75
2021/06/05 10:14:05;;;;;;;1.23;0.87;;;21.60;99.90;;;;;;5086101;28;20437;-77
2021/06/05 10:16:35;;;;;;;1.10;1.00;;;21.70;99.90;;;;;;5086608;28;20460;-76
2021/06/05 10:19:08;;;;;;;1.63;1.20;;;21.70;99.90;;;;;;5086996;28;20546;-75
2021/06/05 10:21:38;;;;;;;1.13;1.03;;;21.80;1.00;;;;;;5114096;27;20882;-75
2021/06/05 10:24:20;;;;;;;1.50;1.03;;;21.70;99.90;;;;;;5099863;28;20478;-73
2021/06/05 10:26:49;;;;;;;1.43;1.10;;;21.70;99.90;;;;;;5091683;28;20511;-79
2021/06/05 10:29:25;;;;;;;1.30;1.20;;;21.80;99.90;;;;;;5083093;28;20508;-75
2021/06/05 10:31:54;;;;;;;3.87;1.60;;;21.70;99.90;;;;;;5091927;28;20539;-73
2021/06/05 10:34:33;;;;;;;1.30;1.20;;;21.70;99.90;;;;;;5086104;28;20550;-76
2021/06/05 10:37:01;;;;;;;1.27;1.17;;;21.80;99.90;;;;;;5088820;28;20458;-75
2021/06/05 10:39:31;;;;;;;1.40;1.30;;;21.80;99.90;;;;;;5084292;28;20449;-74
2021/06/05 10:42:02;;;;;;;1.50;1.00;;;21.80;99.90;;;;;;5082072;28;20879;-79
2021/06/05 10:44:31;;;;;;;1.97;1.00;;;21.80;65.70;;;;;;5100618;28;20493;-79
2021/06/05 10:47:05;;;;;;;1.40;1.30;;;21.90;86.70;;;;;;5102438;28;20447;-79
2021/06/05 10:49:37;;;;;;;2.97;1.33;;;21.90;99.90;;;;;;5096523;28;20478;-81
2021/06/05 10:52:09;;;;;;;2.10;1.20;;;21.70;99.90;;;;;;5088939;28;20537;-80
2021/06/05 10:54:44;;;;;;;2.00;1.87;;;21.70;99.90;;;;;;5083534;28;21003;-80
2021/06/05 10:57:43;;;;;;;1.30;1.20;;;21.80;1.00;;;;;;5089440;28;20534;-77
2021/06/05 11:00:44;;;;;;;2.93;2.53;;;21.90;99.90;;;;;;5084601;28;20489;-77
2021/06/05 11:03:58;;;;;;;1.73;1.63;;;22.00;99.90;;;;;;5087940;28;20479;-76
2021/06/05 11:06:30;;;;;;;1.43;1.10;;;22.10;99.90;;;;;;5092276;28;20505;-77
2021/06/05 11:09:00;;;;;;;1.20;1.10;;;22.20;99.90;;;;;;5084910;28;20473;-80
2021/06/05 11:11:47;;;;;;;1.53;1.10;;;22.20;99.90;;;;;;5086299;28;20448;-80
2021/06/05 11:14:49;;;;;;;1.60;1.07;;;22.30;99.90;;;;;;5085195;28;20448;-79
2021/06/05 11:17:34;;;;;;;1.33;1.23;;;22.50;99.90;;;;;;5083158;28;20513;-81
2021/06/05 11:20:31;;;;;;;1.00;0.90;;;22.40;1.00;;;;;;5084914;28;20975;-78
2021/06/05 11:23:29;;;;;;;2.40;1.10;;;22.40;7.80;;;;;;5087421;28;20524;-78
2021/06/05 11:25:59;;;;;;;1.47;1.13;;;22.20;49.30;;;;;;5077019;28;20567;-79
2021/06/05 11:28:51;;;;;;;1.53;1.00;;;22.20;99.90;;;;;;5082372;28;20441;-79
2021/06/05 11:31:42;;;;;;;1.80;1.30;;;22.20;99.90;;;;;;5088372;28;20447;-79
2021/06/05 11:34:33;;;;;;;1.20;1.10;;;22.20;99.90;;;;;;5088374;28;20522;-78
2021/06/05 11:37:03;;;;;;;1.10;1.00;;;22.20;1.00;;;;;;5084465;28;20494;-79
2021/06/05 11:39:51;;;;;;;0.97;0.97;;;22.10;99.90;;;;;;5071452;28;20503;-78
2021/06/05 11:42:49;;;;;;;1.90;0.90;;;22.20;99.90;;;;;;5085363;28;20504;-77
2021/06/05 11:45:53;;;;;;;1.00;1.00;;;22.20;99.90;;;;;;5084997;28;20465;-77
2021/06/05 11:48:50;;;;;;;1.30;1.20;;;22.20;1.00;;;;;;5079129;28;20452;-77
2021/06/05 11:51:32;;;;;;;1.27;1.00;;;22.20;1.60;;;;;;5060872;28;20892;-77
2021/06/05 11:54:13;;;;;;;2.33;1.00;;;22.20;2.40;;;;;;5089708;28;20454;-76
2021/06/05 11:56:48;;;;;;;1.20;1.10;;;22.30;1.00;;;;;;5088126;28;20574;-78
2021/06/05 11:59:35;;;;;;;0.80;0.80;;;22.40;11.40;;;;;;5086379;28;20501;-75
2021/06/05 12:02:10;;;;;;;16.00;2.40;;;22.50;1.00;;;;;;5086621;28;20811;-75
2021/06/05 12:04:46;;;;;;;1.30;0.90;;;22.60;1.00;;;;;;5083055;28;20493;-75
2021/06/05 12:07:23;;;;;;;1.40;1.30;;;22.60;1.00;;;;;;5083146;28;20463;-80
2021/06/05 12:09:56;;;;;;;0.70;0.70;;;22.50;1.00;;;;;;5081990;28;20449;-80
2021/06/05 12:12:29;;;;;;;0.73;0.73;;;22.30;1.00;;;;;;5084768;28;20462;-80
2021/06/05 12:15:09;;;;;;;2.00;0.70;;;22.10;1.00;;;;;;5091623;28;20522;-80
2021/06/05 12:17:39;;;;;;;1.23;1.10;;;22.00;1.00;;;;;;5087223;28;20460;-81
2021/06/05 12:20:12;;;;;;;0.70;0.70;;;22.00;1.00;;;;;;5091368;28;20451;-79
2021/06/05 12:22:42;;;;;;;2.50;0.70;;;21.90;1.00;;;;;;5091029;28;20446;-79
2021/06/05 12:25:26;;;;;;;0.70;0.70;;;22.00;1.00;;;;;;5091531;28;20473;-80
2021/06/05 12:28:06;;;;;;;1.10;1.00;;;22.10;1.00;;;;;;5089614;28;20508;-80
2021/06/05 12:30:35;;;;;;;0.63;0.63;;;22.10;1.00;;;;;;5078540;28;20456;-80
2021/06/05 12:33:06;;;;;;;0.73;0.70;;;22.00;1.00;;;;;;5123324;27;20481;-81
2021/06/05 12:35:37;;;;;;;0.80;0.80;;;22.00;1.00;;;;;;5087402;28;20476;-80
2021/06/05 12:38:06;;;;;;;1.60;0.70;;;22.00;1.00;;;;;;5089885;28;20505;-78
2021/06/05 12:40:39;;;;;;;1.40;0.80;;;21.90;1.00;;;;;;5090990;28;20516;-80
2021/06/05 12:43:12;;;;;;;0.80;0.80;;;21.70;1.00;;;;;;5085297;28;20471;-78
2021/06/05 12:45:40;;;;;;;0.70;0.70;;;21.50;1.00;;;;;;5090991;28;20462;-79
2021/06/05 12:48:12;;;;;;;0.90;0.90;;;21.60;2.00;;;;;;5087609;28;20454;-80
2021/06/05 12:50:44;;;;;;;0.70;0.70;;;21.70;99.90;;;;;;5124418;27;20550;-80
2021/06/05 12:53:18;;;;;;;0.80;0.80;;;21.80;58.70;;;;;;5080347;28;20453;-79
2021/06/05 12:55:49;;;;;;;0.70;0.70;;;22.00;99.90;;;;;;5081413;28;20517;-73
2021/06/05 12:58:33;;;;;;;0.70;0.70;;;22.10;96.60;;;;;;5115411;27;20817;-73
2021/06/05 13:01:03;;;;;;;0.60;0.60;;;22.20;1.00;;;;;;5079667;28;20450;-73
2021/06/05 13:03:41;;;;;;;0.80;0.80;;;22.20;1.00;;;;;;5081289;28;20479;-72
2021/06/05 13:06:17;;;;;;;2.40;0.80;;;22.20;1.00;;;;;;5085120;28;20890;-74
2021/06/05 13:08:47;;;;;;;0.70;0.70;;;22.20;1.00;;;;;;5115277;27;20451;-75
2021/06/05 13:11:37;;;;;;;1.17;0.67;;;22.30;1.00;;;;;;5088461;28;20539;-74
2021/06/05 13:14:14;;;;;;;0.60;0.60;;;22.30;1.00;;;;;;5070647;28;20502;-73
2021/06/05 13:16:42;;;;;;;0.57;0.57;;;22.30;1.00;;;;;;5082238;28;20825;-74
2021/06/05 13:19:15;;;;;;;1.03;0.70;;;22.40;1.00;;;;;;5092600;28;20535;-75